Spruce Arrow — C6SD9 — position and weather

sailwx.info

Track history (hours):
 
Tides and Currents Weather Stations Pressure Air Temp Water Temp Dewpoint Dewpoint Depression Visibility Wind Speed Wind Dir Waves Ship Positions

Spruce Arrow

Last reported at 2018-Jun-22 22:32 UTC. Time now 2018-Jun-23 16:12 UTC.
Position N 31°06' E 121°58'.

Length 189.8 m; beam 31 m; draft 12.8 m.

Type: Cargo ship. MMSI: 311288000.

Date/timePositionNaut miles runAvg speedWind from/ knotsBaromVisibWave heightAir tempDewpointWater temp
2018-Jun-22 22:32N 31°06' E 121°58'114.1
2018-Jun-22 22:29N 31°06' E 121°59'610.4
2018-Jun-22 21:53N 31°04' E 122°06'1311.4
2018-Jun-22 20:46N 31°02' E 122°20'715.5
2018-Jun-22 20:18N 31°01' E 122°29'42214.0
2018-Jun-21 14:13N 38°03' E 121°56'2614.3
2018-Jun-21 12:24N 38°16' E 121°28'714.1
2018-Jun-21 11:53N 38°20' E 121°20'513.7
2018-Jun-21 11:30N 38°23' E 121°15'713.7
2018-Jun-21 11:00N 38°27' E 121°07'713.7
2018-Jun-21 10:30N 38°30' E 120°60'713.5
2018-Jun-21 10:00N 38°33' E 120°52'713.5
2018-Jun-21 09:30N 38°34' E 120°43'11914.9
2018-Jun-21 01:29N 38°51' E 118°12'2210.6
2018-Jun-20 23:25N 38°59' E 117°46'  
2018-Jun-14 09:36N 35°01' E 129°16'214.7
2018-Jun-14 09:30N 35°02' E 129°17'  
Track history (hours):
 
Tides and Currents Weather Stations Pressure Air Temp Water Temp Dewpoint Dewpoint Depression Visibility Wind Speed Wind Dir Waves Ship Positions

Spruce Arrow

Last reported at 2018-Jun-22 22:32 UTC. Time now 2018-Jun-23 16:12 UTC.
Position N 31°06' E 121°58'.

Length 189.8 m; beam 31 m; draft 12.8 m.

Type: Cargo ship. MMSI: 311288000.

Date/timePositionNaut miles runAvg speedWind from/ knotsBaromVisibWave heightAir tempDewpointWater temp
2018-Jun-22 22:32N 31°06' E 121°58'114.1
2018-Jun-22 22:29N 31°06' E 121°59'610.4
2018-Jun-22 21:53N 31°04' E 122°06'1311.4
2018-Jun-22 20:46N 31°02' E 122°20'715.5
2018-Jun-22 20:18N 31°01' E 122°29'42214.0
2018-Jun-21 14:13N 38°03' E 121°56'2614.3
2018-Jun-21 12:24N 38°16' E 121°28'714.1
2018-Jun-21 11:53N 38°20' E 121°20'513.7
2018-Jun-21 11:30N 38°23' E 121°15'713.7
2018-Jun-21 11:00N 38°27' E 121°07'713.7
2018-Jun-21 10:30N 38°30' E 120°60'713.5
2018-Jun-21 10:00N 38°33' E 120°52'713.5
2018-Jun-21 09:30N 38°34' E 120°43'11914.9
2018-Jun-21 01:29N 38°51' E 118°12'2210.6
2018-Jun-20 23:25N 38°59' E 117°46'  
2018-Jun-14 09:36N 35°01' E 129°16'214.7
2018-Jun-14 09:30N 35°02' E 129°17'  

Dump ship's entire track history